Terminal Aerodrome Forecast
Issued by NWS

Home | Current Version | Previous Version | Text Only | Print | Product List | Glossary Off
Versions: 1 2 3 4 5 6 7 8 9 10 11 12 13 14 15 16 17 18

000
FTUS41 KCLE 291510 AAA
TAFFDY
TAF AMD
KFDY 291510Z 2915/3012 14004KT P6SM -SHRA OVC100
     FM291800 10010KT 6SM -SHRA BR OVC025
     FM292100 10010KT 5SM -SHRA BR OVC015
     FM300600 22004KT 2SM BR OVC004=

USA.gov is the U.S. government's official web portal to all federal, state and local government web resources and services.